GMMD

Beni Mellal Airport

Morocco
METAR GMMD 251800Z 22012G30KT 9999 TS SCT030CB SCT100 31/06 Q1017 NOSIG
Observed Flight Rules
Sep-25 @ 18:00 UTC (an hour ago) Visual Flight Rules
Wind Visibility Clouds Conditions
220° at 12 knots
 Gusting to 30 knots
10,000+ meters
  • Scattered at 3,000' AGL
  • Scattered at 10,000' AGL
  • Thunderstorm
Temperatures Readings
Current 31°C / 88°F
Dewpoint 6°C / 43°F
Humidity 21%
Altimeter 30.03" Hg
Pressure 1017 hPa
Elevation 509
METAR GMMD 251800Z 22012G30KT 9999 TS SCT030CB SCT100 31/06 Q1017 NOSIG
Observed Flight Rules
Sep-25 @ 18:00 UTC
(an hour ago)
VFR
Wind Visibility
220° at 12 knots
 Gusting to 30 knots
10,000+ meters
Clouds
  • Scattered at 3,000' AGL
  • Scattered at 10,000' AGL
Conditions
  • Thunderstorm
Temperature Dewpoint
31°C / 88°F 6°C / 43°F
Humidity Altimeter Pressure
21% 30.03" Hg 1017 hPa